메인 페이지
METAR-TAF:

METAR-TAF

공항 :

해리스버그 / Middletown, 펜실베이니아, 미국

위도: 40-11-37N, 경도: 076-45-48W, 고도: 95m

현재 날씨관측

예보는 33분 전, 21:56시(UTC)에 발표되었습니다.
동남동11kt
온도 7°C
습도 87%
기압 1013 hPa
시정: 16.1km
고도 900ft 상공 흐림

METAR: KMDT 312156Z 11011KT 10SM OVC009 07/05 A2990 RMK AO2 RAE03 SLP126 P0000 T00670050

시각: 18:29 (22:29 UTC)

예보

예보는 27분 전, 22:02시(UTC)에 발표되었습니다.
예보 대상 시간: 31일 22시부터 01일 18시까지 (UTC)
동남동12kt
시정: 4.8km
고도 700ft 상공 흐림
약한비
일시적
31일 22시부터 01일 01시까지 (UTC)
시정: 3.2km
고도 700ft 상공 구름 보통
고도 1500ft 상공 흐림
약한비, 박무
01일 0500시부터 (UTC)
4kt
시정: 10km
고도 2500ft 상공 흐림
시계 내 소나기
01일 0900시부터 (UTC)
북동4kt
시정: 8.0km
고도 2500ft 상공 흐림
박무

TAF: KMDT 312202Z 3122/0118 12012KT 3SM -RA OVC007 TEMPO 3122/0101 2SM -RA BR SCT007 OVC015 FM010500 09004KT P6SM VCSH OVC025 FM010900 04004KT 5SM BR OVC025

4,000개 이상의 공항 관측 자료 및 예보 (METAR 및 TAF 보고).

지도상에서 검색 가능한 기상관측소가 노란 점과 빨간 점으로 표시되어 있습니다.

기상관측소 명을 보려면 표시 위로 마우스를 이동하세요.

날씨 관측과 예보를 보려면 클릭하세요.

지도 변경 : 확대하려면 엑스 표시가 있는 녹색 버튼, 축소하려면 빼기 표시가 있는 녹색 버튼, 다음 페이지의 지도를 보려면 녹색 화살표를 클릭하세요.


METAR-TAF: